Time;durP1;ratioP1;P1;durP2;ratioP2;P2;SDS_P1;SDS_P2;PMS_P1;PMS_P2;Temp;Humidity;BMP_temperature;BMP_pressure;BME280_temperature;BME280_humidity;BME280_pressure;Samples;Min_cycle;Max_cycle;Signal;HPM_P1;HPM_P2
2024/03/28 00:01:02;;;;;;;;;;;7.30;99.90;;;;;;5037997;28;20358;-59
2024/03/28 00:03:27;;;;;;;;;;;7.10;99.90;;;;;;5036215;28;19948;-59
2024/03/28 00:05:53;;;;;;;;;;;6.90;99.90;;;;;;5031190;28;19913;-57
2024/03/28 00:08:19;;;;;;;;;;;7.00;99.90;;;;;;5029631;28;20007;-57
2024/03/28 00:10:48;;;;;;;;;;;7.00;99.90;;;;;;5031493;28;19913;-59
2024/03/28 00:13:13;;;;;;;;;;;7.00;99.90;;;;;;5046017;28;20369;-57
2024/03/28 00:15:39;;;;;;;;;;;7.00;99.90;;;;;;5044938;28;19917;-57
2024/03/28 00:18:05;;;;;;;;;;;7.00;99.90;;;;;;5041188;28;20404;-60
2024/03/28 00:20:31;;;;;;;;;;;6.90;99.90;;;;;;5032646;28;19917;-59
2024/03/28 00:22:56;;;;;;;;;;;6.90;99.90;;;;;;5041347;28;20299;-59
2024/03/28 00:25:22;;;;;;;;;;;6.90;99.90;;;;;;5038641;28;19913;-59
2024/03/28 00:27:47;;;;;;;;;;;6.90;99.90;;;;;;5043447;28;20444;-59
2024/03/28 00:30:13;;;;;;;;;;;6.80;99.90;;;;;;5019227;28;19921;-59
2024/03/28 00:32:38;;;;;;;;;;;6.80;99.90;;;;;;5045063;28;19921;-58
2024/03/28 00:35:04;;;;;;;;;;;6.90;99.90;;;;;;5035912;28;19924;-57
2024/03/28 00:37:29;;;;;;;;;;;6.70;99.90;;;;;;5044326;28;19967;-58
2024/03/28 00:39:55;;;;;;;;;;;6.80;99.90;;;;;;5041519;28;20322;-58
2024/03/28 00:42:20;;;;;;;;;;;6.70;99.90;;;;;;5033117;28;20004;-59
2024/03/28 00:44:45;;;;;;;;;;;6.70;99.90;;;;;;5032811;28;19917;-58
2024/03/28 00:47:11;;;;;;;;;;;6.70;99.90;;;;;;5032431;28;19975;-59
2024/03/28 00:49:36;;;;;;;;;;;6.70;99.90;;;;;;5032256;28;20397;-59
2024/03/28 00:52:02;;;;;;;;;;;6.80;99.90;;;;;;5035768;28;19912;-60
2024/03/28 00:54:27;;;;;;;;;;;6.80;99.90;;;;;;5038453;28;19927;-61
2024/03/28 00:56:53;;;;;;;;;;;6.80;99.90;;;;;;5032493;28;19948;-60
2024/03/28 00:59:18;;;;;;;;;;;6.70;99.90;;;;;;5040581;28;20377;-59
2024/03/28 01:01:43;;;;;;;;;;;6.50;99.90;;;;;;5040642;28;19935;-61
2024/03/28 01:04:09;;;;;;;;;;;6.60;99.90;;;;;;5033095;28;19960;-58
2024/03/28 01:06:34;;;;;;;;;;;6.50;99.90;;;;;;5032313;28;19924;-60
2024/03/28 01:09:00;;;;;;;;;;;6.50;99.90;;;;;;5040117;28;19917;-58
2024/03/28 01:11:25;;;;;;;;;;;6.50;99.90;;;;;;5038500;28;20424;-59
2024/03/28 01:13:51;;;;;;;;;;;6.50;99.90;;;;;;5042435;28;19925;-57
2024/03/28 01:16:16;;;;;;;;;;;6.60;99.90;;;;;;5040208;28;19924;-61
2024/03/28 01:18:42;;;;;;;;;;;6.50;99.90;;;;;;5031369;28;19913;-60
2024/03/28 01:21:07;;;;;;;;;;;6.40;99.90;;;;;;5039664;28;20036;-59
2024/03/28 01:23:32;;;;;;;;;;;6.40;99.90;;;;;;5040070;28;19917;-60
2024/03/28 01:26:01;;;;;;;;;;;6.30;99.90;;;;;;5042337;28;20420;-57
2024/03/28 01:28:27;;;;;;;;;;;6.40;99.90;;;;;;5037062;28;19913;-58
2024/03/28 01:31:01;;;;;;;;;;;6.30;99.90;;;;;;5048393;28;19913;-58
2024/03/28 01:33:27;;;;;;;;;;;6.30;99.90;;;;;;5031873;28;20288;-59
2024/03/28 01:35:52;;;;;;;;;;;6.30;99.90;;;;;;5031602;28;19917;-58
2024/03/28 01:38:18;;;;;;;;;;;6.30;99.90;;;;;;5044914;28;20440;-57
2024/03/28 01:40:43;;;;;;;;;;;6.20;99.90;;;;;;5042351;28;19917;-61
2024/03/28 01:43:09;;;;;;;;;;;6.20;99.90;;;;;;5035285;28;19956;-59
2024/03/28 01:45:34;;;;;;;;;;;6.20;99.90;;;;;;5043956;28;19917;-56
2024/03/28 01:48:00;;;;;;;;;;;6.20;99.90;;;;;;5029813;28;20335;-59
2024/03/28 01:50:27;;;;;;;;;;;6.20;99.90;;;;;;5030792;28;19913;-59
2024/03/28 01:52:52;;;;;;;;;;;6.30;99.90;;;;;;5033020;28;20336;-59
2024/03/28 01:55:18;;;;;;;;;;;6.20;99.90;;;;;;5020198;28;19925;-61
2024/03/28 01:57:44;;;;;;;;;;;6.10;99.90;;;;;;5031319;28;19967;-59
2024/03/28 02:00:11;;;;;;;;;;;6.10;99.90;;;;;;5030922;28;19916;-60
2024/03/28 02:02:38;;;;;;;;;;;6.10;99.90;;;;;;5031237;28;19921;-59
2024/03/28 02:05:04;;;;;;;;;;;6.00;99.90;;;;;;5039375;28;19917;-59
2024/03/28 02:07:29;;;;;;;;;;;6.10;99.90;;;;;;5038871;28;19921;-61
2024/03/28 02:09:54;;;;;;;;;;;6.10;99.90;;;;;;5032184;28;19917;-59
2024/03/28 02:12:20;;;;;;;;;;;6.00;99.90;;;;;;5042745;28;20404;-58
2024/03/28 02:14:45;;;;;;;;;;;6.00;99.90;;;;;;5033826;28;19917;-58
2024/03/28 02:17:12;;;;;;;;;;;6.00;99.90;;;;;;5039066;28;19995;-59
2024/03/28 02:19:37;;;;;;;;;;;5.90;99.90;;;;;;5038164;28;19970;-57
2024/03/28 02:22:03;;;;;;;;;;;5.90;99.90;;;;;;5031297;28;20341;-60
2024/03/28 02:24:29;;;;;;;;;;;5.80;99.90;;;;;;5030780;28;19913;-60
2024/03/28 02:26:54;;;;;;;;;;;5.90;99.90;;;;;;5030658;28;19996;-59
2024/03/28 02:29:20;;;;;;;;;;;5.90;99.90;;;;;;5035486;28;19970;-60
2024/03/28 02:31:46;;;;;;;;;;;5.90;99.90;;;;;;5033390;28;20015;-60
2024/03/28 02:34:11;;;;;;;;;;;5.90;99.90;;;;;;5030685;28;19913;-60
2024/03/28 02:36:36;;;;;;;;;;;5.80;99.90;;;;;;5037837;28;20376;-60
2024/03/28 02:39:02;;;;;;;;;;;5.80;99.90;;;;;;5047018;28;19975;-59
2024/03/28 02:41:27;;;;;;;;;;;5.80;99.90;;;;;;5030604;28;19917;-60
2024/03/28 02:43:53;;;;;;;;;;;5.80;99.90;;;;;;5031886;28;19921;-60
2024/03/28 02:46:19;;;;;;;;;;;5.80;99.90;;;;;;5044969;28;19975;-60
2024/03/28 02:48:44;;;;;;;;;;;5.60;99.90;;;;;;5037505;28;20203;-59
2024/03/28 02:51:10;;;;;;;;;;;5.70;99.90;;;;;;5030389;28;19947;-60
2024/03/28 02:53:35;;;;;;;;;;;5.70;99.90;;;;;;5037714;28;19945;-61
2024/03/28 02:56:01;;;;;;;;;;;5.60;99.90;;;;;;5039279;28;19921;-61
2024/03/28 02:58:26;;;;;;;;;;;5.60;99.90;;;;;;5038700;28;20020;-61
2024/03/28 03:00:52;;;;;;;;;;;5.60;99.90;;;;;;5030100;28;19917;-60
2024/03/28 03:03:17;;;;;;;;;;;5.60;99.90;;;;;;5030176;28;20313;-60
2024/03/28 03:05:43;;;;;;;;;;;5.60;99.90;;;;;;5030106;28;19970;-59
2024/03/28 03:08:09;;;;;;;;;;;5.60;99.90;;;;;;5030192;28;20377;-58
2024/03/28 03:10:34;;;;;;;;;;;5.60;99.90;;;;;;5029904;28;20003;-58
2024/03/28 03:13:00;;;;;;;;;;;5.50;99.90;;;;;;5038365;28;19917;-55
2024/03/28 03:15:25;;;;;;;;;;;5.40;99.90;;;;;;5043832;28;19921;-58
2024/03/28 03:17:50;;;;;;;;;;;5.40;99.90;;;;;;5031803;28;19914;-56
2024/03/28 03:20:16;;;;;;;;;;;5.50;99.90;;;;;;5029559;28;19970;-59
2024/03/28 03:22:48;;;;;;;;;;;5.50;99.90;;;;;;5046326;28;20273;-61
2024/03/28 03:25:28;;;;;;;;;;;5.50;99.90;;;;;;5022751;28;19917;-59
2024/03/28 03:36:07;;;;;;;;;;;5.40;99.90;;;;;;5032894;28;20035;-58
2024/03/28 03:38:32;;;;;;;;;;;5.30;99.90;;;;;;5034013;28;19996;-58
2024/03/28 03:40:59;;;;;;;;;;;5.30;99.90;;;;;;5032140;28;19924;-57
2024/03/28 03:43:25;;;;;;;;;;;5.30;99.90;;;;;;5043726;28;19920;-59
2024/03/28 03:45:50;;;;;;;;;;;5.30;99.90;;;;;;5040154;28;19913;-58
2024/03/28 03:48:16;;;;;;;;;;;5.30;99.90;;;;;;5033592;28;20004;-60
2024/03/28 03:50:41;;;;;;;;;;;5.30;99.90;;;;;;5033155;28;19913;-59
2024/03/28 03:53:07;;;;;;;;;;;5.30;99.90;;;;;;5036697;28;19960;-58
2024/03/28 03:55:32;;;;;;;;;;;5.30;99.90;;;;;;5045037;28;20292;-59
2024/03/28 03:57:58;;;;;;;;;;;5.30;99.90;;;;;;5044977;28;20322;-59
2024/03/28 04:00:23;;;;;;;;;;;5.10;99.90;;;;;;5047290;28;19917;-55
2024/03/28 04:02:49;;;;;;;;;;;5.10;99.90;;;;;;5033153;28;20323;-59
2024/03/28 04:05:14;;;;;;;;;;;5.10;99.90;;;;;;5033274;28;20457;-59
2024/03/28 04:07:40;;;;;;;;;;;5.00;99.90;;;;;;5041431;28;19924;-60
2024/03/28 04:10:06;;;;;;;;;;;5.00;99.90;;;;;;5032860;28;19909;-58
2024/03/28 04:12:31;;;;;;;;;;;5.00;99.90;;;;;;5039797;28;20270;-58
2024/03/28 04:14:57;;;;;;;;;;;4.90;99.90;;;;;;5034617;28;19917;-58
2024/03/28 04:17:22;;;;;;;;;;;4.90;99.90;;;;;;5041088;28;19913;-58
2024/03/28 04:19:48;;;;;;;;;;;4.80;99.90;;;;;;5032548;28;19944;-57
2024/03/28 04:22:13;;;;;;;;;;;4.70;99.90;;;;;;5033012;28;20369;-58
2024/03/28 04:24:39;;;;;;;;;;;4.70;99.90;;;;;;5032869;28;20332;-58
2024/03/28 04:27:04;;;;;;;;;;;4.70;99.90;;;;;;5043855;28;19917;-60
2024/03/28 04:29:30;;;;;;;;;;;4.80;99.90;;;;;;5037797;28;20023;-58
2024/03/28 04:31:56;;;;;;;;;;;4.70;99.90;;;;;;5041044;28;19924;-59
2024/03/28 04:34:23;;;;;;;;;;;4.60;99.90;;;;;;5023125;28;19925;-58
2024/03/28 04:36:49;;;;;;;;;;;4.60;99.90;;;;;;5040682;28;20051;-61
2024/03/28 04:39:14;;;;;;;;;;;4.60;99.90;;;;;;5032209;28;20015;-59
2024/03/28 04:41:40;;;;;;;;;;;4.60;99.90;;;;;;5022990;28;19960;-59
2024/03/28 04:44:06;;;;;;;;;;;4.50;99.90;;;;;;5040630;28;19917;-58
2024/03/28 04:46:32;;;;;;;;;;;4.50;99.90;;;;;;5032003;28;19925;-59
2024/03/28 04:48:57;;;;;;;;;;;4.50;99.90;;;;;;5042124;28;19913;-60
2024/03/28 04:51:24;;;;;;;;;;;4.40;99.90;;;;;;5044394;28;19923;-60
2024/03/28 04:53:49;;;;;;;;;;;4.40;99.90;;;;;;5051823;28;19959;-59
2024/03/28 04:56:15;;;;;;;;;;;4.50;99.90;;;;;;5031217;28;19956;-60
2024/03/28 04:58:41;;;;;;;;;;;4.40;99.90;;;;;;5032033;28;20439;-61
2024/03/28 05:01:06;;;;;;;;;;;4.30;99.90;;;;;;5035247;28;19972;-60
2024/03/28 05:03:32;;;;;;;;;;;4.20;99.90;;;;;;5037627;28;20329;-58
2024/03/28 05:05:58;;;;;;;;;;;4.10;99.90;;;;;;5032185;28;19931;-60
2024/03/28 05:08:24;;;;;;;;;;;4.10;99.90;;;;;;5037553;28;19921;-59
2024/03/28 05:10:49;;;;;;;;;;;4.10;99.90;;;;;;5034648;28;19923;-58
2024/03/28 05:13:14;;;;;;;;;;;4.10;99.90;;;;;;5036433;28;20343;-57
2024/03/28 05:15:40;;;;;;;;;;;4.00;99.90;;;;;;5035826;28;19913;-59
2024/03/28 05:18:05;;;;;;;;;;;3.90;99.90;;;;;;5040387;28;19913;-59
2024/03/28 05:20:31;;;;;;;;;;;3.80;99.90;;;;;;5040130;28;20327;-60
2024/03/28 05:22:57;;;;;;;;;;;3.80;99.90;;;;;;5033696;28;19939;-60
2024/03/28 05:25:23;;;;;;;;;;;3.70;99.90;;;;;;5051077;28;19967;-58
2024/03/28 05:27:48;;;;;;;;;;;3.60;99.90;;;;;;5034421;28;19936;-60
2024/03/28 05:30:14;;;;;;;;;;;3.60;99.90;;;;;;5042013;28;20340;-58
2024/03/28 05:32:40;;;;;;;;;;;3.60;99.90;;;;;;5035297;28;19913;-60
2024/03/28 05:35:05;;;;;;;;;;;3.60;99.90;;;;;;5039405;28;19926;-58
2024/03/28 05:37:31;;;;;;;;;;;3.50;99.90;;;;;;5037538;28;20020;-57
2024/03/28 05:39:56;;;;;;;;;;;3.50;99.90;;;;;;5040490;28;20391;-57
2024/03/28 05:42:22;;;;;;;;;;;3.50;99.90;;;;;;5039354;28;19917;-58
2024/03/28 05:44:47;;;;;;;;;;;3.40;99.90;;;;;;5035753;28;20024;-59
2024/03/28 05:47:13;;;;;;;;;;;3.50;99.90;;;;;;5030605;28;19921;-60
2024/03/28 05:49:38;;;;;;;;;;;3.60;99.90;;;;;;5046153;28;19997;-60
2024/03/28 05:52:04;;;;;;;;;;;3.60;99.90;;;;;;5034242;28;19917;-59
2024/03/28 05:54:29;;;;;;;;;;;3.70;99.90;;;;;;5036289;28;19920;-59
2024/03/28 05:56:55;;;;;;;;;;;3.80;99.90;;;;;;5030372;28;20301;-60
2024/03/28 05:59:22;;;;;;;;;;;3.80;99.90;;;;;;5035111;28;19966;-60
2024/03/28 06:01:48;;;;;;;;;;;3.90;99.90;;;;;;5042054;28;19982;-61
2024/03/28 06:04:13;;;;;;;;;;;3.80;99.90;;;;;;5030856;28;19921;-61
2024/03/28 06:06:39;;;;;;;;;;;4.00;99.90;;;;;;5030704;28;19928;-59
2024/03/28 06:09:04;;;;;;;;;;;4.00;99.90;;;;;;5029314;28;20453;-59
2024/03/28 06:11:29;;;;;;;;;;;4.10;99.90;;;;;;5038689;28;20024;-59
2024/03/28 06:14:05;;;;;;;;;;;4.20;99.90;;;;;;5040234;28;19913;-59
2024/03/28 06:16:31;;;;;;;;;;;4.30;99.90;;;;;;5035502;28;20009;-58
2024/03/28 06:18:56;;;;;;;;;;;4.40;99.90;;;;;;5029770;28;20037;-58
2024/03/28 06:21:22;;;;;;;;;;;4.60;99.90;;;;;;5043401;28;19917;-58
2024/03/28 06:23:47;;;;;;;;;;;4.80;99.90;;;;;;5037788;28;19924;-60
2024/03/28 06:26:12;;;;;;;;;;;5.00;99.90;;;;;;5040899;28;19913;-59
2024/03/28 06:28:38;;;;;;;;;;;5.20;99.90;;;;;;5033637;28;20308;-59
2024/03/28 06:31:04;;;;;;;;;;;5.40;99.90;;;;;;5037857;28;19963;-59
2024/03/28 06:33:29;;;;;;;;;;;5.60;99.90;;;;;;5035655;28;19914;-59
2024/03/28 06:35:55;;;;;;;;;;;5.80;99.90;;;;;;5029410;28;20020;-57
2024/03/28 06:38:20;;;;;;;;;;;6.10;99.90;;;;;;5034862;28;19908;-59
2024/03/28 06:40:46;;;;;;;;;;;6.40;99.90;;;;;;5037594;28;19913;-58
2024/03/28 06:43:11;;;;;;;;;;;6.50;99.90;;;;;;5029512;28;20004;-59
2024/03/28 06:45:37;;;;;;;;;;;6.40;99.90;;;;;;5033363;28;20392;-58
2024/03/28 06:48:03;;;;;;;;;;;6.50;99.90;;;;;;5040815;28;19924;-58
2024/03/28 06:50:29;;;;;;;;;;;6.60;99.90;;;;;;5043123;28;19932;-59
2024/03/28 06:52:54;;;;;;;;;;;6.60;99.90;;;;;;5037607;28;19912;-58
2024/03/28 06:55:20;;;;;;;;;;;6.60;99.90;;;;;;5029193;28;20392;-60
2024/03/28 06:57:46;;;;;;;;;;;6.60;99.90;;;;;;5028981;28;20304;-59
2024/03/28 07:00:12;;;;;;;;;;;6.70;99.90;;;;;;5028951;28;19909;-59
2024/03/28 07:02:37;;;;;;;;;;;6.60;99.90;;;;;;5029112;28;20003;-56
2024/03/28 07:05:03;;;;;;;;;;;6.60;99.90;;;;;;5028957;28;20020;-60
2024/03/28 07:07:29;;;;;;;;;;;6.70;99.90;;;;;;5028747;28;20017;-59
2024/03/28 07:09:55;;;;;;;;;;;6.80;99.90;;;;;;5036709;28;19920;-59
2024/03/28 07:12:21;;;;;;;;;;;6.80;99.90;;;;;;5029317;28;19917;-59
2024/03/28 07:14:47;;;;;;;;;;;6.90;99.90;;;;;;5037146;28;19948;-59
2024/03/28 07:17:12;;;;;;;;;;;6.90;99.90;;;;;;5028942;28;20257;-59
2024/03/28 07:19:38;;;;;;;;;;;6.90;99.90;;;;;;5035207;28;19968;-58
2024/03/28 07:22:03;;;;;;;;;;;6.90;99.90;;;;;;5030026;28;19913;-56
2024/03/28 07:24:29;;;;;;;;;;;6.80;99.90;;;;;;5043155;28;19924;-59
2024/03/28 07:26:54;;;;;;;;;;;6.70;99.90;;;;;;5039226;28;20347;-60
2024/03/28 07:29:19;;;;;;;;;;;6.60;99.90;;;;;;5028562;28;19917;-59
2024/03/28 07:31:45;;;;;;;;;;;6.50;99.90;;;;;;5045099;28;19913;-61
2024/03/28 07:34:12;;;;;;;;;;;6.40;99.90;;;;;;5028991;28;20380;-59
2024/03/28 07:36:38;;;;;;;;;;;6.30;99.90;;;;;;5028795;28;19975;-57
2024/03/28 07:39:04;;;;;;;;;;;6.30;99.90;;;;;;5028279;28;20077;-60
2024/03/28 07:41:30;;;;;;;;;;;6.30;99.90;;;;;;5037589;28;19926;-59
2024/03/28 07:43:55;;;;;;;;;;;6.40;99.90;;;;;;5037317;28;19917;-59
2024/03/28 07:46:21;;;;;;;;;;;6.50;99.90;;;;;;5033271;28;19921;-60
2024/03/28 07:48:46;;;;;;;;;;;6.60;99.90;;;;;;5039947;28;19959;-59
2024/03/28 07:51:12;;;;;;;;;;;6.60;99.90;;;;;;5037198;28;20369;-61
2024/03/28 07:53:38;;;;;;;;;;;6.70;99.90;;;;;;5028728;28;19913;-58
2024/03/28 07:56:04;;;;;;;;;;;6.70;99.90;;;;;;5028337;28;19986;-59
2024/03/28 07:58:30;;;;;;;;;;;6.80;99.90;;;;;;5036586;28;19917;-60
2024/03/28 08:01:02;;;;;;;;;;;6.80;99.90;;;;;;5010954;28;19971;-58
2024/03/28 08:03:28;;;;;;;;;;;6.90;99.90;;;;;;5029007;28;19909;-61
2024/03/28 08:05:54;;;;;;;;;;;7.10;99.90;;;;;;5036786;28;19924;-59
2024/03/28 08:08:19;;;;;;;;;;;7.20;99.90;;;;;;5036760;28;19986;-60
2024/03/28 08:10:44;;;;;;;;;;;7.30;99.90;;;;;;5036669;28;20278;-60
2024/03/28 08:13:10;;;;;;;;;;;7.30;99.90;;;;;;5037022;28;19924;-58
2024/03/28 08:15:37;;;;;;;;;;;7.40;99.90;;;;;;5028507;28;20044;-59
2024/03/28 08:18:03;;;;;;;;;;;7.40;99.90;;;;;;5028544;28;19917;-61
2024/03/28 08:20:29;;;;;;;;;;;7.40;99.90;;;;;;5033892;28;19964;-61
2024/03/28 08:22:56;;;;;;;;;;;7.70;99.90;;;;;;5039267;28;20005;-61
2024/03/28 08:25:22;;;;;;;;;;;7.80;99.90;;;;;;5036979;28;19928;-61
2024/03/28 08:27:48;;;;;;;;;;;7.80;99.90;;;;;;5028141;28;19920;-59
2024/03/28 08:30:15;;;;;;;;;;;7.80;99.90;;;;;;5028806;28;19916;-59
2024/03/28 08:32:40;;;;;;;;;;;7.90;99.90;;;;;;5030520;28;19943;-58
2024/03/28 08:35:06;;;;;;;;;;;8.00;99.90;;;;;;5032915;28;20305;-57
2024/03/28 08:37:32;;;;;;;;;;;8.00;99.90;;;;;;5036178;28;19925;-59
2024/03/28 08:39:58;;;;;;;;;;;8.00;99.90;;;;;;5031138;28;19964;-61
2024/03/28 08:42:23;;;;;;;;;;;8.20;99.90;;;;;;5039691;28;20014;-60
2024/03/28 08:44:49;;;;;;;;;;;8.10;99.90;;;;;;5032064;28;19914;-59
2024/03/28 08:47:14;;;;;;;;;;;8.10;99.90;;;;;;5039227;28;19929;-59
2024/03/28 08:49:40;;;;;;;;;;;8.10;99.90;;;;;;5031876;28;19917;-61
2024/03/28 08:52:05;;;;;;;;;;;8.10;99.90;;;;;;5048237;28;20369;-59
2024/03/28 08:54:31;;;;;;;;;;;8.00;99.90;;;;;;5031439;28;19917;-60
2024/03/28 08:56:57;;;;;;;;;;;7.80;99.90;;;;;;5031347;28;19921;-60
2024/03/28 08:59:22;;;;;;;;;;;7.70;99.90;;;;;;5035831;28;20358;-59
2024/03/28 09:01:49;;;;;;;;;;;7.50;99.90;;;;;;5034595;28;19913;-61
2024/03/28 09:04:17;;;;;;;;;;;7.60;99.90;;;;;;5031418;28;19909;-60
2024/03/28 09:06:46;;;;;;;;;;;7.90;99.90;;;;;;5038877;28;19909;-58
2024/03/28 09:09:12;;;;;;;;;;;8.20;99.90;;;;;;5030616;28;20369;-60
2024/03/28 09:11:37;;;;;;;;;;;8.70;99.90;;;;;;5038010;28;19963;-61
2024/03/28 09:14:03;;;;;;;;;;;9.50;99.90;;;;;;5032330;28;19963;-60
2024/03/28 09:16:32;;;;;;;;;;;9.80;99.90;;;;;;5039058;28;19925;-60
2024/03/28 09:18:58;;;;;;;;;;;9.80;99.90;;;;;;5030393;28;19913;-59
2024/03/28 09:21:23;;;;;;;;;;;9.80;99.90;;;;;;5031268;28;20373;-60
2024/03/28 09:23:49;;;;;;;;;;;9.40;99.90;;;;;;5030961;28;19975;-59
2024/03/28 09:26:19;;;;;;;;;;;9.00;99.90;;;;;;5042802;28;19917;-57
2024/03/28 09:28:44;;;;;;;;;;;8.90;99.90;;;;;;5050406;28;20369;-61
2024/03/28 09:31:10;;;;;;;;;;;8.60;99.90;;;;;;5030861;28;19910;-59
2024/03/28 09:33:35;;;;;;;;;;;8.60;99.90;;;;;;5030561;28;19953;-59
2024/03/28 09:36:01;;;;;;;;;;;8.40;99.90;;;;;;5040578;28;19917;-58
2024/03/28 09:38:27;;;;;;;;;;;8.30;99.90;;;;;;5036977;28;20024;-59
2024/03/28 09:40:53;;;;;;;;;;;8.40;99.90;;;;;;5030512;28;20433;-59
2024/03/28 09:43:18;;;;;;;;;;;8.50;99.90;;;;;;5038240;28;20456;-58
2024/03/28 09:45:44;;;;;;;;;;;8.60;99.90;;;;;;5030875;28;19924;-60
2024/03/28 09:48:14;;;;;;;;;;;8.50;99.90;;;;;;5046574;28;19917;-59
2024/03/28 09:50:40;;;;;;;;;;;8.50;99.90;;;;;;5030157;28;19924;-60
2024/03/28 09:53:06;;;;;;;;;;;8.50;99.90;;;;;;5046780;28;19975;-58
2024/03/28 09:55:32;;;;;;;;;;;8.60;99.90;;;;;;5030245;28;19917;-58
2024/03/28 09:58:02;;;;;;;;;;;8.50;99.90;;;;;;5029460;28;21654;-59
2024/03/28 10:00:28;;;;;;;;;;;8.30;99.90;;;;;;5035239;28;19924;-59
2024/03/28 10:02:57;;;;;;;;;;;8.30;99.90;;;;;;5041177;28;19925;-60
2024/03/28 10:05:24;;;;;;;;;;;8.20;99.90;;;;;;5030202;28;20375;-58
2024/03/28 10:07:50;;;;;;;;;;;8.20;99.90;;;;;;5030303;28;19960;-59
2024/03/28 10:10:16;;;;;;;;;;;8.20;99.90;;;;;;5029597;28;19952;-58
2024/03/28 10:12:52;;;;;;;;;;;8.30;99.90;;;;;;5030289;28;19944;-59
2024/03/28 10:15:18;;;;;;;;;;;8.30;99.90;;;;;;5022371;28;19920;-58
2024/03/28 10:17:43;;;;;;;;;;;8.10;99.90;;;;;;5029848;28;20478;-62
2024/03/28 10:20:10;;;;;;;;;;;8.00;99.90;;;;;;5029292;28;19921;-59
2024/03/28 10:22:52;;;;;;;;;;;7.90;99.90;;;;;;5038115;28;19920;-59
2024/03/28 10:25:18;;;;;;;;;;;7.80;99.90;;;;;;5029884;28;19920;-56
2024/03/28 10:27:44;;;;;;;;;;;7.70;99.90;;;;;;5029467;28;20020;-60
2024/03/28 10:30:19;;;;;;;;;;;7.70;99.90;;;;;;5031697;28;19959;-60
2024/03/28 10:32:44;;;;;;;;;;;7.80;99.90;;;;;;5038045;28;19915;-59
2024/03/28 10:35:09;;;;;;;;;;;8.00;99.90;;;;;;5029500;28;20023;-58
2024/03/28 10:37:35;;;;;;;;;;;8.30;99.90;;;;;;5029431;28;19917;-59
2024/03/28 10:40:01;;;;;;;;;;;8.80;99.90;;;;;;5029132;28;19919;-58
2024/03/28 10:42:28;;;;;;;;;;;9.00;99.90;;;;;;5037673;28;20370;-56
2024/03/28 10:44:59;;;;;;;;;;;9.00;99.90;;;;;;5029351;28;19948;-58
2024/03/28 10:47:25;;;;;;;;;;;9.20;99.90;;;;;;5042363;28;19921;-58
2024/03/28 10:50:09;;;;;;;;;;;9.40;99.90;;;;;;5040540;28;19919;-60
2024/03/28 10:52:42;;;;;;;;;;;9.70;99.90;;;;;;5043156;28;19999;-60
2024/03/28 10:55:08;;;;;;;;;;;9.80;99.90;;;;;;5036579;28;19928;-59
2024/03/28 10:57:34;;;;;;;;;;;10.20;99.90;;;;;;5029379;28;19913;-59
2024/03/28 10:59:59;;;;;;;;;;;10.00;99.90;;;;;;5028858;28;19924;-58
2024/03/28 11:02:27;;;;;;;;;;;10.50;99.90;;;;;;5029379;28;19996;-56
2024/03/28 11:04:53;;;;;;;;;;;11.00;99.90;;;;;;5037368;28;20360;-56
2024/03/28 11:07:20;;;;;;;;;;;11.30;99.90;;;;;;5028719;28;20276;-59
2024/03/28 11:09:47;;;;;;;;;;;12.20;99.90;;;;;;5028782;28;19916;-59
2024/03/28 11:12:12;;;;;;;;;;;12.90;99.90;;;;;;5037412;28;19988;-59
2024/03/28 11:14:38;;;;;;;;;;;13.00;99.90;;;;;;5029090;28;20400;-57
2024/03/28 11:17:04;;;;;;;;;;;13.20;99.90;;;;;;5028728;28;19921;-57
2024/03/28 11:19:29;;;;;;;;;;;13.30;99.90;;;;;;5034384;28;19924;-57
2024/03/28 11:21:57;;;;;;;;;;;13.10;99.90;;;;;;5039749;28;19914;-59
2024/03/28 11:24:28;;;;;;;;;;;13.30;99.90;;;;;;5029121;28;20328;-59
2024/03/28 11:26:54;;;;;;;;;;;13.10;99.90;;;;;;5037093;28;20248;-58
2024/03/28 11:29:26;;;;;;;;;;;13.20;99.90;;;;;;5028486;28;20012;-57
2024/03/28 11:31:58;;;;;;;;;;;13.30;99.90;;;;;;5011095;28;20373;-59
2024/03/28 11:34:25;;;;;;;;;;;13.40;99.90;;;;;;5033493;28;19917;-55
2024/03/28 11:36:52;;;;;;;;;;;13.30;99.90;;;;;;5039995;28;19923;-58
2024/03/28 11:39:17;;;;;;;;;;;13.20;99.90;;;;;;5036499;28;19913;-59
2024/03/28 11:41:43;;;;;;;;;;;13.40;99.90;;;;;;5034709;28;19917;-57
2024/03/28 11:44:09;;;;;;;;;;;13.30;99.90;;;;;;5036276;28;20359;-56
2024/03/28 11:46:34;;;;;;;;;;;13.50;99.90;;;;;;5033543;28;19972;-59
2024/03/28 11:49:00;;;;;;;;;;;13.40;99.90;;;;;;5038271;28;20031;-59
2024/03/28 11:51:26;;;;;;;;;;;13.40;99.90;;;;;;5028574;28;19920;-57
2024/03/28 11:53:53;;;;;;;;;;;13.10;99.90;;;;;;5045903;28;19908;-59
2024/03/28 11:56:21;;;;;;;;;;;12.90;99.90;;;;;;5044422;28;20313;-56
2024/03/28 11:58:46;;;;;;;;;;;12.80;99.90;;;;;;5044402;28;19982;-59
2024/03/28 12:01:12;;;;;;;;;;;12.80;99.90;;;;;;5045628;28;20328;-59
2024/03/28 12:03:38;;;;;;;;;;;13.10;99.90;;;;;;5028374;28;19940;-59
2024/03/28 12:06:03;;;;;;;;;;;13.30;99.90;;;;;;5029595;28;19913;-57
2024/03/28 12:08:32;;;;;;;;;;;13.60;99.90;;;;;;5032040;28;20381;-60
2024/03/28 12:10:58;;;;;;;;;;;13.70;99.90;;;;;;5048693;28;20442;-58
2024/03/28 12:13:24;;;;;;;;;;;13.50;99.90;;;;;;5037097;28;20356;-59
2024/03/28 12:15:59;;;;;;;;;;;13.40;99.90;;;;;;5035590;28;19948;-57
2024/03/28 12:18:25;;;;;;;;;;;13.60;99.90;;;;;;5025123;28;20338;-59
2024/03/28 12:21:00;;;;;;;;;;;13.30;99.90;;;;;;5039710;28;19963;-58
2024/03/28 12:23:26;;;;;;;;;;;13.20;99.90;;;;;;5031932;28;19913;-59
2024/03/28 12:25:51;;;;;;;;;;;13.30;99.90;;;;;;5032012;28;19916;-59
2024/03/28 12:28:18;;;;;;;;;;;13.60;99.90;;;;;;5035517;28;20282;-59
2024/03/28 12:30:54;;;;;;;;;;;13.80;99.90;;;;;;5035988;28;19924;-59
2024/03/28 12:33:20;;;;;;;;;;;13.80;99.90;;;;;;5024530;28;19923;-58
2024/03/28 12:35:45;;;;;;;;;;;13.60;99.90;;;;;;5040060;28;19996;-59
2024/03/28 12:38:14;;;;;;;;;;;13.10;99.90;;;;;;5039894;28;20328;-59
2024/03/28 12:40:44;;;;;;;;;;;12.40;99.90;;;;;;5031507;28;19924;-57
2024/03/28 12:43:13;;;;;;;;;;;12.00;99.90;;;;;;5031571;28;19923;-56
2024/03/28 12:45:39;;;;;;;;;;;11.80;99.90;;;;;;5031396;28;19947;-55
2024/03/28 12:48:06;;;;;;;;;;;11.50;99.90;;;;;;5031583;28;19960;-55
2024/03/28 12:50:32;;;;;;;;;;;11.20;99.90;;;;;;5039491;28;19948;-57
2024/03/28 12:52:58;;;;;;;;;;;10.30;99.90;;;;;;5048166;28;20016;-55
2024/03/28 12:55:24;;;;;;;;;;;9.50;99.90;;;;;;5031472;28;20000;-57
2024/03/28 12:57:49;;;;;;;;;;;9.10;99.90;;;;;;5039506;28;20345;-59
2024/03/28 13:00:15;;;;;;;;;;;8.70;99.90;;;;;;5039211;28;19913;-57
2024/03/28 13:02:41;;;;;;;;;;;8.40;99.90;;;;;;5039426;28;20353;-59
2024/03/28 13:05:08;;;;;;;;;;;8.40;99.90;;;;;;5031274;28;19916;-58
2024/03/28 13:07:33;;;;;;;;;;;8.30;99.90;;;;;;5031196;28;19909;-59
2024/03/28 13:09:58;;;;;;;;;;;8.10;99.90;;;;;;5030803;28;20301;-57
2024/03/28 13:12:27;;;;;;;;;;;8.10;99.90;;;;;;5031120;28;19924;-55
2024/03/28 13:14:53;;;;;;;;;;;8.30;99.90;;;;;;5047542;28;19923;-56
2024/03/28 13:17:19;;;;;;;;;;;8.60;99.90;;;;;;5029712;28;20314;-58
2024/03/28 13:19:44;;;;;;;;;;;9.10;99.90;;;;;;5030613;28;20011;-58
2024/03/28 13:22:10;;;;;;;;;;;9.40;99.90;;;;;;5039423;28;20304;-60
2024/03/28 13:24:36;;;;;;;;;;;9.80;99.90;;;;;;5030961;28;20373;-60
2024/03/28 13:27:02;;;;;;;;;;;10.20;99.90;;;;;;5038866;28;19920;-56
2024/03/28 13:29:27;;;;;;;;;;;10.30;99.90;;;;;;5030512;28;19913;-59
2024/03/28 13:31:53;;;;;;;;;;;10.40;99.90;;;;;;5030749;28;20445;-58
2024/03/28 13:34:18;;;;;;;;;;;10.50;99.90;;;;;;5030959;28;19913;-56
2024/03/28 13:36:44;;;;;;;;;;;10.70;99.90;;;;;;5037937;28;19917;-60
2024/03/28 13:39:10;;;;;;;;;;;11.00;99.90;;;;;;5039426;28;19932;-58
2024/03/28 13:41:35;;;;;;;;;;;11.30;99.90;;;;;;5036874;28;19924;-58
2024/03/28 13:44:01;;;;;;;;;;;11.80;99.90;;;;;;5032801;28;19920;-58
2024/03/28 13:46:26;;;;;;;;;;;12.00;99.90;;;;;;5030704;28;20020;-56
2024/03/28 13:48:52;;;;;;;;;;;12.00;99.90;;;;;;5038131;28;19971;-55
2024/03/28 13:51:17;;;;;;;;;;;12.30;99.90;;;;;;5030565;28;19913;-59
2024/03/28 13:53:43;;;;;;;;;;;12.30;99.90;;;;;;5037968;28;20339;-59
2024/03/28 13:56:08;;;;;;;;;;;12.50;99.90;;;;;;5033893;28;19928;-57
2024/03/28 13:58:34;;;;;;;;;;;12.70;99.90;;;;;;5041565;28;20325;-57
2024/03/28 14:00:59;;;;;;;;;;;12.90;99.90;;;;;;5033817;28;20028;-58
2024/03/28 14:03:25;;;;;;;;;;;13.00;99.90;;;;;;5037426;28;19923;-56
2024/03/28 14:05:50;;;;;;;;;;;13.10;99.90;;;;;;5038405;28;20329;-57
2024/03/28 14:08:16;;;;;;;;;;;13.10;99.90;;;;;;5029893;28;19913;-54
2024/03/28 14:10:41;;;;;;;;;;;13.00;99.90;;;;;;5038170;28;20063;-57
2024/03/28 14:13:07;;;;;;;;;;;12.60;99.90;;;;;;5030044;28;19913;-54
2024/03/28 14:15:36;;;;;;;;;;;12.60;99.90;;;;;;5030053;28;20366;-59
2024/03/28 14:18:02;;;;;;;;;;;12.70;99.90;;;;;;5029867;28;20302;-55
2024/03/28 14:20:27;;;;;;;;;;;12.80;99.90;;;;;;5033702;28;19920;-58
2024/03/28 14:22:53;;;;;;;;;;;13.00;99.90;;;;;;5041353;28;20013;-56
2024/03/28 14:25:18;;;;;;;;;;;13.40;99.90;;;;;;5029646;28;20015;-57
2024/03/28 14:27:44;;;;;;;;;;;13.40;99.90;;;;;;5029761;28;19956;-58